createdAt,value
2017-11-08T00:00:38.164Z,27.8
2017-11-08T00:01:39.833Z,28.0
2017-11-08T00:02:41.488Z,26.2
2017-11-08T00:03:43.136Z,28.9
2017-11-08T00:04:44.790Z,27.9
2017-11-08T00:05:46.439Z,26.9
2017-11-08T00:06:48.095Z,26.3
2017-11-08T00:07:49.742Z,25.8
2017-11-08T00:08:51.393Z,26.2
2017-11-08T00:09:53.052Z,28.0
2017-11-08T00:10:54.696Z,26.6
2017-11-08T00:11:56.357Z,27.1
2017-11-08T00:12:58.002Z,27.6
2017-11-08T00:13:59.660Z,27.5
2017-11-08T00:15:01.317Z,27.1
2017-11-08T00:16:03.054Z,25.7
2017-11-08T00:17:04.706Z,26.9
2017-11-08T00:18:06.363Z,28.5
2017-11-08T00:19:08.224Z,28.6
2017-11-08T00:20:09.737Z,27.9
2017-11-08T00:21:11.384Z,27.1
2017-11-08T00:22:13.032Z,27.1
2017-11-08T00:23:14.689Z,26.7
2017-11-08T00:24:16.338Z,27.9
2017-11-08T00:25:17.986Z,26.9
2017-11-08T00:26:19.633Z,26.8
2017-11-08T00:27:22.185Z,26.5
2017-11-08T00:28:23.841Z,27.5
2017-11-08T00:29:25.544Z,27.5
2017-11-08T00:30:27.209Z,26.7
2017-11-08T00:31:28.865Z,26.6
2017-11-08T00:32:30.525Z,26.6
2017-11-08T00:33:32.186Z,23.2
2017-11-08T00:34:33.887Z,24.6
2017-11-08T00:35:35.541Z,23.4
2017-11-08T00:36:37.180Z,23.1
2017-11-08T00:37:38.839Z,23.3
2017-11-08T00:38:40.495Z,22.4
2017-11-08T00:39:42.177Z,23.5
2017-11-08T00:40:43.818Z,23.3
2017-11-08T00:41:45.463Z,23.1
2017-11-08T00:42:47.109Z,22.8
2017-11-08T00:43:48.756Z,22.1
2017-11-08T00:44:50.417Z,21.9
2017-11-08T00:45:52.071Z,21.9
2017-11-08T00:46:53.725Z,21.0
2017-11-08T00:47:55.376Z,21.1
2017-11-08T00:48:57.053Z,22.3
2017-11-08T00:49:58.705Z,21.6
2017-11-08T00:51:00.358Z,22.3
2017-11-08T00:52:02.025Z,22.7
2017-11-08T00:53:03.682Z,22.4
2017-11-08T00:54:05.365Z,22.9
2017-11-08T00:55:07.011Z,22.6
2017-11-08T00:56:08.664Z,22.9
2017-11-08T00:57:10.313Z,22.5
2017-11-08T00:58:11.965Z,23.4
2017-11-08T00:59:13.617Z,21.8
2017-11-08T01:00:15.269Z,22.1
2017-11-08T01:01:16.934Z,21.7
2017-11-08T01:02:18.590Z,22.0
2017-11-08T01:03:20.246Z,21.8
2017-11-08T01:04:21.897Z,22.0
2017-11-08T01:05:23.551Z,23.7
2017-11-08T01:06:25.208Z,21.2
2017-11-08T01:07:26.879Z,24.0
2017-11-08T01:08:28.528Z,22.5
2017-11-08T01:09:30.173Z,20.9
2017-11-08T01:10:31.829Z,22.0
2017-11-08T01:11:33.489Z,22.5
2017-11-08T01:12:35.139Z,21.2
2017-11-08T01:13:36.789Z,21.2
2017-11-08T01:14:38.462Z,23.1
2017-11-08T01:15:40.114Z,23.6
2017-11-08T01:16:41.775Z,23.0
2017-11-08T01:17:43.425Z,23.6
2017-11-08T01:18:45.077Z,22.4
2017-11-08T01:19:46.722Z,24.3
2017-11-08T01:20:48.371Z,22.7
2017-11-08T01:21:50.033Z,23.5
2017-11-08T01:22:51.680Z,22.4
2017-11-08T01:23:53.354Z,22.2
2017-11-08T01:24:55.015Z,23.2
2017-11-08T01:25:56.658Z,22.4
2017-11-08T01:26:58.322Z,23.0
2017-11-08T01:27:59.980Z,23.5
2017-11-08T01:29:01.631Z,23.3
2017-11-08T01:30:03.297Z,23.2
2017-11-08T01:31:04.944Z,22.2
2017-11-08T01:32:06.599Z,24.9
2017-11-08T01:33:08.243Z,23.3
2017-11-08T01:34:09.903Z,24.0
2017-11-08T01:35:11.569Z,24.7
2017-11-08T01:36:13.232Z,25.6
2017-11-08T01:37:14.884Z,25.2
2017-11-08T01:38:16.551Z,27.4
2017-11-08T01:39:18.188Z,27.6
2017-11-08T01:40:19.836Z,26.4
2017-11-08T01:41:21.493Z,26.5
2017-11-08T01:42:23.175Z,26.4
2017-11-08T01:43:24.829Z,26.9
2017-11-08T01:44:26.479Z,26.8
2017-11-08T01:45:28.135Z,25.5
2017-11-08T01:46:29.787Z,23.8
2017-11-08T01:47:31.457Z,23.7
2017-11-08T01:48:33.134Z,24.8
2017-11-08T01:49:34.795Z,24.8
2017-11-08T01:50:36.440Z,23.3
2017-11-08T01:51:38.094Z,23.9
2017-11-08T01:52:39.748Z,23.3
2017-11-08T01:53:41.401Z,24.6
2017-11-08T01:54:43.057Z,25.1
2017-11-08T01:55:44.708Z,24.4
2017-11-08T01:56:46.366Z,24.2
2017-11-08T01:57:48.026Z,24.0
2017-11-08T01:58:49.661Z,24.8
2017-11-08T01:59:51.323Z,25.5
2017-11-08T02:00:52.968Z,25.5
2017-11-08T02:01:54.628Z,24.8
2017-11-08T02:02:56.272Z,24.3
2017-11-08T02:03:57.931Z,25.1
2017-11-08T02:04:59.587Z,24.2
2017-11-08T02:06:01.242Z,24.5
2017-11-08T02:07:02.902Z,26.8
2017-11-08T02:08:04.552Z,24.6
2017-11-08T02:09:06.202Z,25.4
2017-11-08T02:10:07.858Z,24.3
2017-11-08T02:11:09.511Z,23.7
2017-11-08T02:12:11.158Z,24.6
2017-11-08T02:13:12.813Z,24.0
2017-11-08T02:14:14.488Z,25.6
2017-11-08T02:15:16.139Z,25.5
2017-11-08T02:16:17.810Z,26.8
2017-11-08T02:17:19.469Z,24.6
2017-11-08T02:18:21.126Z,24.0
2017-11-08T02:19:22.826Z,24.4
2017-11-08T02:20:24.476Z,25.7
2017-11-08T02:21:26.133Z,24.3
2017-11-08T02:22:27.786Z,25.6
2017-11-08T02:23:29.442Z,24.6
2017-11-08T02:24:31.088Z,25.4
2017-11-08T02:25:32.740Z,25.6
2017-11-08T02:26:34.399Z,25.8
2017-11-08T02:27:36.053Z,26.4
2017-11-08T02:28:37.706Z,26.9
2017-11-08T02:29:39.352Z,26.2
2017-11-08T02:30:41.009Z,26.1
2017-11-08T02:31:42.662Z,26.2
2017-11-08T02:32:44.310Z,25.7
2017-11-08T02:33:45.961Z,25.3
2017-11-08T02:34:47.613Z,25.5
2017-11-08T02:35:49.261Z,25.9
2017-11-08T02:36:50.914Z,25.2
2017-11-08T02:37:52.563Z,25.6
2017-11-08T02:38:54.228Z,25.4
2017-11-08T02:39:55.893Z,26.3
2017-11-08T02:40:57.548Z,27.1
2017-11-08T02:41:59.204Z,27.7
2017-11-08T02:43:00.849Z,26.7
2017-11-08T02:44:02.496Z,27.7
2017-11-08T02:45:04.144Z,25.7
2017-11-08T02:46:05.793Z,27.0
2017-11-08T02:47:07.439Z,26.1
2017-11-08T02:48:09.090Z,27.3
2017-11-08T02:49:10.758Z,27.0
2017-11-08T02:50:12.426Z,28.4
2017-11-08T02:51:14.067Z,27.5
2017-11-08T02:52:15.728Z,27.9
2017-11-08T02:53:17.374Z,27.4
2017-11-08T02:54:19.019Z,27.9
2017-11-08T03:00:58.168Z,22.8
2017-11-08T03:01:59.829Z,24.9
2017-11-08T03:03:01.476Z,27.2
2017-11-08T03:04:03.119Z,29.2
2017-11-08T03:05:04.760Z,29.7
2017-11-08T03:06:06.410Z,28.1
2017-11-08T03:07:08.062Z,27.9
2017-11-08T03:08:09.716Z,29.1
2017-11-08T03:09:11.368Z,29.0
2017-11-08T03:10:13.021Z,29.4
2017-11-08T03:11:14.686Z,29.0
2017-11-08T03:12:16.322Z,29.4
2017-11-08T03:13:17.974Z,28.9
2017-11-08T03:14:19.633Z,28.2
2017-11-08T03:15:21.284Z,28.1
2017-11-08T03:16:22.939Z,30.6
2017-11-08T03:17:24.589Z,29.0
2017-11-08T03:18:26.235Z,29.5
2017-11-08T03:19:27.883Z,27.8
2017-11-08T03:20:29.535Z,28.5
2017-11-08T03:21:31.193Z,29.3
2017-11-08T03:22:32.846Z,30.3
2017-11-08T03:23:34.497Z,28.1
2017-11-08T03:24:36.159Z,30.5
2017-11-08T03:25:37.827Z,31.0
2017-11-08T03:26:39.453Z,31.7
2017-11-08T03:27:41.110Z,31.8
2017-11-08T03:28:42.768Z,29.6
2017-11-08T03:29:44.416Z,32.2
2017-11-08T03:30:46.067Z,32.3
2017-11-08T03:31:47.711Z,31.1
2017-11-08T03:32:49.359Z,32.3
2017-11-08T03:33:51.007Z,31.8
2017-11-08T03:34:52.654Z,30.3
2017-11-08T03:35:54.308Z,32.3
2017-11-08T03:36:55.961Z,31.5
2017-11-08T03:37:57.610Z,32.1
2017-11-08T03:38:59.273Z,31.6
2017-11-08T03:40:00.920Z,32.5
2017-11-08T03:41:02.584Z,32.1
2017-11-08T03:42:04.235Z,32.5
2017-11-08T03:43:05.891Z,33.0
2017-11-08T03:44:07.579Z,34.9
2017-11-08T03:45:09.229Z,31.2
2017-11-08T03:46:10.881Z,33.5
2017-11-08T03:47:12.585Z,32.8
2017-11-08T03:48:14.237Z,33.8
2017-11-08T03:49:15.892Z,33.9
2017-11-08T03:50:17.555Z,34.1
2017-11-08T03:51:19.203Z,33.7
2017-11-08T03:52:20.857Z,33.3
2017-11-08T03:53:22.504Z,33.5
2017-11-08T03:54:24.203Z,35.1
2017-11-08T03:55:25.849Z,32.6
2017-11-08T03:56:27.503Z,34.6
2017-11-08T03:57:29.159Z,35.7
2017-11-08T03:58:30.811Z,35.4
2017-11-08T03:59:32.482Z,34.9
2017-11-08T04:00:34.133Z,35.3
2017-11-08T04:01:35.789Z,35.4
2017-11-08T04:02:37.443Z,35.5
2017-11-08T04:03:39.093Z,34.0
2017-11-08T04:04:40.762Z,34.4
2017-11-08T04:05:42.426Z,34.9
2017-11-08T04:06:44.078Z,33.2
2017-11-08T04:07:45.724Z,33.1
2017-11-08T04:08:47.378Z,33.2
2017-11-08T04:09:49.036Z,33.7
2017-11-08T04:10:50.683Z,33.0
2017-11-08T04:11:52.333Z,32.4
2017-11-08T04:12:53.986Z,33.8
2017-11-08T04:13:55.643Z,32.0
2017-11-08T04:14:57.339Z,33.6
2017-11-08T04:15:58.987Z,34.5
2017-11-08T04:17:00.640Z,33.8
2017-11-08T04:18:02.288Z,36.8
2017-11-08T04:19:03.943Z,34.8
2017-11-08T04:20:05.595Z,33.9
2017-11-08T04:21:07.241Z,34.9
2017-11-08T04:22:08.914Z,36.2
2017-11-08T04:23:10.568Z,36.0
2017-11-08T04:24:12.218Z,35.2
2017-11-08T04:25:13.870Z,34.7
2017-11-08T04:26:15.524Z,36.5
2017-11-08T04:27:17.213Z,35.3
2017-11-08T04:28:18.870Z,35.3
2017-11-08T04:29:20.524Z,33.3
2017-11-08T04:30:22.181Z,34.3
2017-11-08T04:31:23.837Z,34.4
2017-11-08T04:32:25.503Z,34.8
2017-11-08T04:33:27.161Z,36.5
2017-11-08T04:34:28.819Z,34.3
2017-11-08T04:35:30.469Z,35.6
2017-11-08T04:36:32.128Z,34.9
2017-11-08T04:37:33.777Z,35.7
2017-11-08T04:38:35.422Z,35.2
2017-11-08T04:39:37.074Z,36.5
2017-11-08T04:40:38.727Z,34.0
2017-11-08T04:41:40.383Z,34.0
2017-11-08T04:42:42.037Z,33.5
2017-11-08T04:43:43.695Z,33.6
2017-11-08T04:44:45.359Z,34.5
2017-11-08T04:45:47.009Z,35.6
2017-11-08T04:46:48.667Z,36.0
2017-11-08T04:47:50.316Z,35.7
2017-11-08T04:48:51.966Z,33.8
2017-11-08T04:49:53.618Z,35.3
2017-11-08T04:50:55.269Z,34.6
2017-11-08T04:51:56.918Z,34.7
2017-11-08T04:52:58.581Z,35.4
2017-11-08T04:54:00.234Z,37.4
2017-11-08T04:55:01.892Z,37.1
2017-11-08T04:56:03.552Z,36.9
2017-11-08T04:57:05.203Z,36.9
2017-11-08T04:58:06.848Z,37.0
2017-11-08T04:59:08.498Z,35.4
2017-11-08T05:00:10.147Z,37.7
2017-11-08T05:01:11.799Z,39.7
2017-11-08T05:02:13.453Z,38.3
2017-11-08T05:03:15.099Z,37.7
2017-11-08T05:04:18.512Z,37.8
2017-11-08T05:05:20.161Z,38.7
2017-11-08T05:06:21.962Z,38.1
2017-11-08T05:07:23.615Z,38.2
2017-11-08T05:08:25.264Z,40.4
2017-11-08T05:09:26.923Z,37.6
2017-11-08T05:10:41.439Z,38.3
2017-11-08T05:11:43.077Z,39.7
2017-11-08T05:12:44.729Z,40.2
2017-11-08T05:13:46.396Z,37.7
2017-11-08T05:14:49.408Z,39.1
2017-11-08T05:15:51.578Z,39.0
2017-11-08T05:16:53.227Z,37.3
2017-11-08T05:17:54.885Z,40.5
2017-11-08T05:18:56.538Z,39.9
2017-11-08T05:19:58.192Z,38.1
2017-11-08T05:20:59.846Z,40.6
2017-11-08T05:22:01.491Z,38.8
2017-11-08T05:23:03.146Z,36.9
2017-11-08T05:24:04.797Z,38.5
2017-11-08T05:25:06.469Z,37.5
2017-11-08T05:26:08.124Z,38.7
2017-11-08T05:27:09.775Z,39.0
2017-11-08T05:28:13.365Z,38.2
2017-11-08T05:29:15.027Z,37.5
2017-11-08T05:30:16.677Z,36.2
2017-11-08T05:31:18.330Z,38.0
2017-11-08T05:32:19.979Z,38.7
2017-11-08T05:33:21.643Z,38.6
2017-11-08T05:34:23.292Z,38.5
2017-11-08T05:35:24.942Z,36.7
2017-11-08T05:36:26.587Z,36.0
2017-11-08T05:37:28.236Z,36.1
2017-11-08T05:38:29.929Z,35.6
2017-11-08T05:39:31.585Z,37.2
2017-11-08T05:40:33.228Z,37.8
2017-11-08T05:41:34.891Z,40.3
2017-11-08T05:42:36.547Z,39.9
2017-11-08T05:43:38.190Z,40.0
2017-11-08T05:44:39.843Z,41.3
2017-11-08T05:45:41.511Z,40.2
2017-11-08T05:46:43.168Z,43.5
2017-11-08T05:47:44.808Z,42.1
2017-11-08T05:48:46.470Z,40.1
2017-11-08T05:49:48.129Z,40.3
2017-11-08T05:50:49.788Z,40.3
2017-11-08T05:51:51.557Z,39.8
2017-11-08T05:52:53.215Z,36.6
2017-11-08T05:53:54.863Z,37.9
2017-11-08T05:54:56.560Z,39.4
2017-11-08T05:55:58.240Z,36.7
2017-11-08T05:56:59.890Z,38.9
2017-11-08T05:58:01.546Z,41.5
2017-11-08T05:59:03.193Z,39.1
2017-11-08T06:00:04.861Z,39.3
2017-11-08T06:01:06.505Z,39.0
2017-11-08T06:02:08.154Z,39.3
2017-11-08T06:03:09.803Z,40.1
2017-11-08T06:04:11.493Z,38.1
2017-11-08T06:05:13.137Z,40.8
2017-11-08T06:06:14.792Z,39.0
2017-11-08T06:07:16.447Z,38.8
2017-11-08T06:08:18.103Z,37.6
2017-11-08T06:09:19.752Z,39.0
2017-11-08T06:10:21.404Z,38.3
2017-11-08T06:11:23.071Z,36.4
2017-11-08T06:12:24.718Z,35.6
2017-11-08T06:13:26.372Z,37.8
2017-11-08T06:14:28.024Z,38.7
2017-11-08T06:15:29.672Z,38.9
2017-11-08T06:16:31.333Z,40.4
2017-11-08T06:17:33.310Z,37.2
2017-11-08T06:18:34.977Z,40.3
2017-11-08T06:19:36.646Z,36.3
2017-11-08T06:20:38.363Z,38.1
2017-11-08T06:21:40.084Z,39.5
2017-11-08T06:22:41.749Z,35.8
2017-11-08T06:23:43.396Z,35.3
2017-11-08T06:24:45.090Z,35.5
2017-11-08T06:25:46.737Z,38.9
2017-11-08T06:26:48.384Z,39.7
2017-11-08T06:27:50.037Z,38.0
2017-11-08T06:28:51.690Z,35.8
2017-11-08T06:29:53.346Z,38.7
2017-11-08T06:30:55.024Z,39.4
2017-11-08T06:31:56.678Z,38.1
2017-11-08T06:32:58.342Z,38.4
2017-11-08T06:34:00.014Z,39.7
2017-11-08T06:35:01.669Z,38.8
2017-11-08T06:36:03.419Z,40.5
2017-11-08T06:37:05.080Z,40.2
2017-11-08T06:38:06.744Z,40.3
2017-11-08T06:39:08.397Z,41.7
2017-11-08T06:40:10.058Z,40.9
2017-11-08T06:41:11.715Z,41.9
2017-11-08T06:42:13.379Z,39.0
2017-11-08T06:43:15.022Z,39.7
2017-11-08T06:44:16.685Z,39.1
2017-11-08T06:45:18.341Z,36.6
2017-11-08T06:46:20.021Z,38.6
2017-11-08T06:47:21.672Z,40.1
2017-11-08T06:48:23.329Z,37.0
2017-11-08T06:49:24.984Z,38.3
2017-11-08T06:50:26.640Z,36.9
2017-11-08T06:51:28.296Z,37.6
2017-11-08T06:52:29.947Z,39.9
2017-11-08T06:53:31.597Z,39.0
2017-11-08T06:54:33.271Z,40.3
2017-11-08T06:55:34.929Z,40.9
2017-11-08T07:01:47.864Z,30.6
2017-11-08T07:02:49.494Z,33.2
2017-11-08T07:03:51.156Z,35.3
2017-11-08T07:04:52.812Z,38.0
2017-11-08T07:05:54.467Z,40.3
2017-11-08T07:06:56.130Z,41.3
2017-11-08T07:07:57.786Z,41.4
2017-11-08T07:08:59.441Z,39.2
2017-11-08T07:10:01.103Z,40.2
2017-11-08T07:11:02.835Z,42.2
2017-11-08T07:12:04.496Z,36.2
2017-11-08T07:13:06.159Z,40.0
2017-11-08T07:14:07.810Z,44.1
2017-11-08T07:15:09.470Z,42.6
2017-11-08T07:16:11.136Z,40.8
2017-11-08T07:17:12.799Z,39.9
2017-11-08T07:18:14.454Z,38.1
2017-11-08T07:19:16.104Z,38.0
2017-11-08T07:20:17.768Z,40.5
2017-11-08T07:21:19.429Z,41.4
2017-11-08T07:22:21.088Z,43.1
2017-11-08T07:23:22.758Z,40.4
2017-11-08T07:24:24.455Z,41.6
2017-11-08T07:25:26.110Z,42.0
2017-11-08T07:26:27.773Z,41.5
2017-11-08T07:27:29.418Z,43.5
2017-11-08T07:28:31.077Z,43.9
2017-11-08T07:29:32.792Z,46.7
2017-11-08T07:30:34.473Z,42.8
2017-11-08T07:31:36.145Z,40.8
2017-11-08T07:32:37.795Z,41.7
2017-11-08T07:33:39.441Z,41.9
2017-11-08T07:34:41.100Z,45.2
2017-11-08T07:35:42.759Z,45.3
2017-11-08T07:36:44.419Z,45.7
2017-11-08T07:37:46.066Z,45.9
2017-11-08T07:38:47.717Z,43.9
2017-11-08T07:39:49.371Z,40.6
2017-11-08T07:40:51.028Z,40.8
2017-11-08T07:41:52.686Z,44.5
2017-11-08T07:42:54.340Z,42.3
2017-11-08T07:43:55.998Z,41.6
2017-11-08T07:44:57.670Z,41.8
2017-11-08T07:45:59.333Z,40.0
2017-11-08T07:47:00.990Z,42.3
2017-11-08T07:48:02.647Z,42.4
2017-11-08T07:49:04.314Z,43.5
2017-11-08T07:50:05.977Z,44.4
2017-11-08T07:51:07.651Z,42.4
2017-11-08T07:52:09.287Z,41.6
2017-11-08T07:53:10.948Z,42.7
2017-11-08T07:54:12.610Z,39.8
2017-11-08T07:55:14.275Z,42.9
2017-11-08T07:56:15.923Z,37.4
2017-11-08T07:57:17.585Z,35.8
2017-11-08T07:58:19.241Z,38.1
2017-11-08T07:59:20.900Z,38.4
2017-11-08T08:00:22.575Z,40.4
2017-11-08T08:01:24.223Z,42.7
2017-11-08T08:02:25.880Z,40.2
2017-11-08T08:03:27.530Z,42.2
2017-11-08T08:04:29.188Z,40.9
2017-11-08T08:05:30.848Z,40.0
2017-11-08T08:06:32.509Z,43.3
2017-11-08T08:07:34.920Z,39.5
2017-11-08T08:08:36.575Z,40.3
2017-11-08T08:09:38.248Z,39.7
2017-11-08T08:10:39.913Z,41.2
2017-11-08T08:11:41.577Z,43.4
2017-11-08T08:12:43.236Z,42.9
2017-11-08T08:13:44.898Z,42.6
2017-11-08T08:14:46.559Z,43.7
2017-11-08T08:15:48.214Z,41.7
2017-11-08T08:16:49.870Z,43.5
2017-11-08T08:17:51.527Z,42.3
2017-11-08T08:18:53.184Z,44.0
2017-11-08T08:19:54.846Z,41.7
2017-11-08T08:20:56.502Z,40.0
2017-11-08T08:21:58.156Z,42.9
2017-11-08T08:22:59.816Z,42.6
2017-11-08T08:24:01.468Z,40.9
2017-11-08T08:25:03.126Z,41.0
2017-11-08T08:26:04.823Z,41.0
2017-11-08T08:27:06.496Z,44.1
2017-11-08T08:28:08.170Z,40.8
2017-11-08T08:29:09.824Z,43.9
2017-11-08T08:30:11.488Z,43.6
2017-11-08T08:31:13.142Z,41.3
2017-11-08T08:32:14.808Z,44.2
2017-11-08T08:33:16.470Z,45.8
2017-11-08T08:34:18.122Z,38.1
2017-11-08T08:35:19.784Z,40.6
2017-11-08T08:36:21.443Z,42.3
2017-11-08T08:37:23.115Z,41.0
2017-11-08T08:38:24.778Z,40.6
2017-11-08T08:39:26.448Z,40.6
2017-11-08T08:40:28.092Z,44.2
2017-11-08T08:41:29.764Z,41.9
2017-11-08T08:42:31.422Z,39.3
2017-11-08T08:43:33.075Z,42.7
2017-11-08T08:44:34.737Z,41.4
2017-11-08T08:45:36.400Z,40.0
2017-11-08T08:46:38.063Z,41.7
2017-11-08T08:47:39.722Z,41.6
2017-11-08T08:48:41.383Z,42.4
2017-11-08T08:49:43.040Z,41.7
2017-11-08T08:50:44.719Z,42.8
2017-11-08T08:51:46.381Z,43.4
2017-11-08T08:52:48.039Z,43.6
2017-11-08T08:53:49.702Z,44.1
2017-11-08T08:54:51.365Z,42.0
2017-11-08T08:55:53.061Z,44.4
2017-11-08T08:56:54.723Z,42.4
2017-11-08T08:57:56.384Z,42.3
2017-11-08T08:58:58.035Z,42.8
2017-11-08T08:59:59.700Z,41.9
2017-11-08T09:01:01.354Z,42.9
2017-11-08T09:02:03.016Z,44.7
2017-11-08T09:03:04.675Z,42.3
2017-11-08T09:04:06.331Z,42.8
2017-11-08T09:05:08.018Z,41.6
2017-11-08T09:06:09.946Z,43.2
2017-11-08T09:07:11.540Z,44.3
2017-11-08T09:08:13.206Z,42.3
2017-11-08T09:09:14.867Z,42.9
2017-11-08T09:10:16.522Z,43.8
2017-11-08T09:11:18.193Z,45.3
2017-11-08T09:12:19.855Z,43.1
2017-11-08T09:13:21.521Z,43.0
2017-11-08T09:14:23.718Z,44.6
2017-11-08T09:15:25.390Z,43.6
2017-11-08T09:16:27.063Z,43.1
2017-11-08T09:17:28.718Z,40.7
2017-11-08T09:18:30.381Z,42.7
2017-11-08T09:19:32.040Z,43.2
2017-11-08T09:20:33.699Z,41.0
2017-11-08T09:21:35.347Z,44.5
2017-11-08T09:22:36.997Z,46.4
2017-11-08T09:23:38.659Z,45.3
2017-11-08T09:24:40.316Z,43.5
2017-11-08T09:25:41.967Z,44.9
2017-11-08T09:26:43.615Z,45.9
2017-11-08T09:27:45.271Z,47.7
2017-11-08T09:28:46.932Z,46.3
2017-11-08T09:29:48.589Z,45.5
2017-11-08T09:30:50.277Z,48.0
2017-11-08T09:31:51.941Z,46.9
2017-11-08T09:32:53.596Z,47.7
2017-11-08T09:33:55.274Z,47.5
2017-11-08T09:34:56.929Z,48.7
2017-11-08T09:35:58.589Z,48.0
2017-11-08T09:37:00.260Z,47.9
2017-11-08T09:38:01.910Z,46.4
2017-11-08T09:39:03.586Z,47.5
2017-11-08T09:40:05.234Z,47.0
2017-11-08T09:41:06.896Z,49.0
2017-11-08T09:42:08.551Z,45.2
2017-11-08T09:43:10.216Z,47.0
2017-11-08T09:44:11.869Z,47.0
2017-11-08T09:45:13.528Z,48.0
2017-11-08T09:46:15.177Z,47.6
2017-11-08T09:47:16.832Z,46.2
2017-11-08T09:48:18.488Z,47.8
2017-11-08T09:49:20.158Z,49.4
2017-11-08T09:50:21.812Z,48.5
2017-11-08T09:51:23.475Z,45.7
2017-11-08T09:52:25.149Z,47.1
2017-11-08T09:53:26.798Z,47.4
2017-11-08T09:54:28.468Z,47.0
2017-11-08T09:55:30.160Z,48.0
2017-11-08T09:56:31.796Z,49.1
2017-11-08T09:57:33.451Z,48.0
2017-11-08T09:58:35.108Z,47.1
2017-11-08T09:59:36.785Z,45.7
2017-11-08T10:00:38.469Z,46.5
2017-11-08T10:01:40.121Z,47.6
2017-11-08T10:02:41.790Z,47.4
2017-11-08T10:03:43.437Z,48.0
2017-11-08T10:04:45.106Z,48.8
2017-11-08T10:05:46.778Z,46.7
2017-11-08T10:06:48.419Z,45.1
2017-11-08T10:07:50.104Z,45.0
2017-11-08T10:08:51.750Z,50.1
2017-11-08T10:09:53.498Z,46.3
2017-11-08T10:10:55.068Z,48.5
2017-11-08T10:11:56.736Z,46.9
2017-11-08T10:12:58.397Z,45.6
2017-11-08T10:14:00.084Z,47.5
2017-11-08T10:15:01.707Z,48.2
2017-11-08T10:16:03.367Z,45.7
2017-11-08T10:17:05.028Z,44.9
2017-11-08T10:18:06.682Z,47.8
2017-11-08T10:19:08.349Z,48.2
2017-11-08T10:20:09.998Z,44.1
2017-11-08T10:21:11.667Z,42.5
2017-11-08T10:22:13.329Z,41.7
2017-11-08T10:23:14.992Z,42.7
2017-11-08T10:24:16.646Z,43.9
2017-11-08T10:25:18.303Z,44.9
2017-11-08T10:26:19.970Z,43.9
2017-11-08T10:27:21.644Z,45.9
2017-11-08T10:28:23.311Z,43.5
2017-11-08T10:29:24.968Z,40.7
2017-11-08T10:30:26.631Z,43.3
2017-11-08T10:31:28.286Z,42.2
2017-11-08T10:32:29.944Z,43.1
2017-11-08T10:33:31.605Z,45.1
2017-11-08T10:34:33.262Z,45.5
2017-11-08T10:35:34.941Z,44.1
2017-11-08T10:36:36.598Z,43.2
2017-11-08T10:37:38.326Z,44.3
2017-11-08T10:38:40.062Z,42.5
2017-11-08T10:39:41.740Z,42.4
2017-11-08T10:40:43.397Z,43.1
2017-11-08T10:41:45.059Z,42.1
2017-11-08T10:42:46.670Z,43.3
2017-11-08T10:43:48.353Z,42.8
2017-11-08T10:44:49.991Z,38.9
2017-11-08T10:45:51.665Z,42.0
2017-11-08T10:46:53.325Z,43.3
2017-11-08T10:47:54.987Z,45.3
2017-11-08T10:48:56.643Z,43.3
2017-11-08T10:49:58.323Z,42.3
2017-11-08T10:51:00.008Z,40.7
2017-11-08T10:52:01.667Z,42.6
2017-11-08T10:53:03.347Z,42.0
2017-11-08T10:54:05.013Z,40.4
2017-11-08T10:55:06.681Z,44.8
2017-11-08T11:01:23.262Z,36.1
2017-11-08T11:02:24.923Z,40.5
2017-11-08T11:03:26.568Z,41.5
2017-11-08T11:04:28.226Z,44.1
2017-11-08T11:05:29.900Z,41.8
2017-11-08T11:06:31.557Z,41.3
2017-11-08T11:07:33.245Z,43.2
2017-11-08T11:08:34.907Z,40.1
2017-11-08T11:09:36.577Z,41.1
2017-11-08T11:10:38.223Z,42.7
2017-11-08T11:11:39.885Z,41.3
2017-11-08T11:12:41.554Z,42.8
2017-11-08T11:13:43.224Z,40.3
2017-11-08T11:14:44.936Z,42.5
2017-11-08T11:15:46.598Z,42.7
2017-11-08T11:16:48.257Z,43.2
2017-11-08T11:17:49.921Z,42.8
2017-11-08T11:18:51.573Z,44.0
2017-11-08T11:19:53.232Z,43.3
2017-11-08T11:20:54.890Z,42.6
2017-11-08T11:21:56.554Z,42.3
2017-11-08T11:22:58.218Z,42.5
2017-11-08T11:23:59.878Z,44.8
2017-11-08T11:25:01.530Z,46.9
2017-11-08T11:26:03.204Z,45.2
2017-11-08T11:27:04.866Z,46.0
2017-11-08T11:28:06.528Z,46.1
2017-11-08T11:29:08.182Z,45.4
2017-11-08T11:30:09.842Z,44.5
2017-11-08T11:31:11.505Z,41.9
2017-11-08T11:32:13.186Z,44.5
2017-11-08T11:33:14.846Z,45.9
2017-11-08T11:34:16.516Z,45.2
2017-11-08T11:35:18.176Z,43.9
2017-11-08T11:36:19.839Z,45.0
2017-11-08T11:37:21.508Z,46.4
2017-11-08T11:38:23.177Z,45.9
2017-11-08T11:39:24.843Z,43.8
2017-11-08T11:40:26.507Z,44.6
2017-11-08T11:41:28.271Z,44.6
2017-11-08T11:42:29.927Z,41.9
2017-11-08T11:43:31.583Z,43.1
2017-11-08T11:44:33.260Z,44.2
2017-11-08T11:45:34.920Z,43.2
2017-11-08T11:46:36.580Z,44.3
2017-11-08T11:47:38.235Z,42.6
2017-11-08T11:48:39.903Z,41.1
2017-11-08T11:49:41.551Z,43.9
2017-11-08T11:50:43.214Z,45.4
2017-11-08T11:51:44.888Z,45.5
2017-11-08T11:52:46.534Z,45.1
2017-11-08T11:53:48.196Z,44.6
2017-11-08T11:54:49.850Z,43.4
2017-11-08T11:55:51.523Z,45.5
2017-11-08T11:56:53.187Z,44.6
2017-11-08T11:57:54.857Z,44.4
2017-11-08T11:58:56.565Z,42.3
2017-11-08T11:59:58.242Z,44.7
2017-11-08T12:00:59.904Z,46.5
2017-11-08T12:02:01.558Z,43.9
2017-11-08T12:03:03.237Z,45.2
2017-11-08T12:04:04.896Z,42.1
2017-11-08T12:05:06.561Z,43.1
2017-11-08T12:06:08.218Z,47.1
2017-11-08T12:07:09.951Z,45.1
2017-11-08T12:08:11.608Z,46.8
2017-11-08T12:09:13.266Z,44.4
2017-11-08T12:10:14.937Z,44.1
2017-11-08T12:11:16.600Z,43.8
2017-11-08T12:12:18.269Z,43.6
2017-11-08T12:13:19.922Z,42.4
2017-11-08T12:14:21.604Z,43.4
2017-11-08T12:15:23.254Z,44.1
2017-11-08T12:16:24.919Z,47.8
2017-11-08T12:17:26.669Z,44.7
2017-11-08T12:18:28.335Z,45.5
2017-11-08T12:19:30.000Z,45.6
2017-11-08T12:20:31.660Z,46.7
2017-11-08T12:21:33.315Z,46.1
2017-11-08T12:22:34.971Z,43.2
2017-11-08T12:23:36.635Z,44.7
2017-11-08T12:24:38.312Z,44.3
2017-11-08T12:25:39.965Z,45.6
2017-11-08T12:26:41.625Z,44.0
2017-11-08T12:27:43.292Z,44.0
2017-11-08T12:28:44.949Z,45.2
2017-11-08T12:29:46.616Z,43.7
2017-11-08T12:30:48.273Z,46.6
2017-11-08T12:31:49.938Z,45.2
2017-11-08T12:32:51.625Z,45.8
2017-11-08T12:33:53.266Z,45.4
2017-11-08T12:34:54.934Z,66.9
2017-11-08T12:35:56.595Z,45.6
2017-11-08T12:36:58.253Z,45.3
2017-11-08T12:37:59.914Z,47.4
2017-11-08T12:39:01.575Z,44.4
2017-11-08T12:40:03.234Z,45.0
2017-11-08T12:41:04.892Z,45.1
2017-11-08T12:42:06.548Z,44.6
2017-11-08T12:43:08.203Z,43.6
2017-11-08T12:44:09.922Z,44.0
2017-11-08T12:45:11.642Z,42.4
2017-11-08T12:46:13.303Z,44.8
2017-11-08T12:47:14.973Z,44.1
2017-11-08T12:48:16.629Z,42.6
2017-11-08T12:49:18.292Z,44.2
2017-11-08T12:50:19.944Z,41.8
2017-11-08T12:51:21.603Z,45.0
2017-11-08T12:52:23.272Z,42.4
2017-11-08T12:53:24.932Z,42.5
2017-11-08T12:54:26.588Z,42.3
2017-11-08T12:55:28.238Z,42.0
2017-11-08T12:56:29.901Z,42.1
2017-11-08T12:57:31.562Z,41.7
2017-11-08T12:58:33.260Z,43.6
2017-11-08T12:59:34.911Z,44.4
2017-11-08T13:00:36.572Z,41.6
2017-11-08T13:01:38.233Z,43.2
2017-11-08T13:02:39.893Z,43.8
2017-11-08T13:03:41.574Z,42.9
2017-11-08T13:04:43.225Z,45.9
2017-11-08T13:05:44.909Z,44.9
2017-11-08T13:06:46.567Z,41.7
2017-11-08T13:07:48.226Z,40.6
2017-11-08T13:08:49.904Z,42.2
2017-11-08T13:09:51.564Z,44.0
2017-11-08T13:10:53.233Z,46.9
2017-11-08T13:11:55.018Z,44.8
2017-11-08T13:12:56.692Z,47.1
2017-11-08T13:13:58.354Z,45.1
2017-11-08T13:15:00.026Z,43.4
2017-11-08T13:16:01.692Z,48.6
2017-11-08T13:17:03.364Z,47.3
2017-11-08T13:18:05.020Z,48.4
2017-11-08T13:19:06.680Z,45.9
2017-11-08T13:20:08.337Z,45.3
2017-11-08T13:21:10.030Z,42.9
2017-11-08T13:22:11.701Z,44.6
2017-11-08T13:23:13.365Z,47.3
2017-11-08T13:24:15.038Z,46.1
2017-11-08T13:25:16.698Z,46.4
2017-11-08T13:26:18.356Z,43.9
2017-11-08T13:27:20.014Z,46.0
2017-11-08T13:28:21.712Z,44.3
2017-11-08T13:29:23.372Z,44.8
2017-11-08T13:30:25.042Z,43.6
2017-11-08T13:31:26.708Z,48.8
2017-11-08T13:32:28.370Z,47.7
2017-11-08T13:33:30.033Z,46.2
2017-11-08T13:34:31.688Z,47.1
2017-11-08T13:35:33.344Z,45.8
2017-11-08T13:36:35.019Z,43.8
2017-11-08T13:37:36.683Z,50.5
2017-11-08T13:38:38.345Z,46.2
2017-11-08T13:39:40.006Z,46.4
2017-11-08T13:40:41.669Z,47.9
2017-11-08T13:41:43.328Z,49.1
2017-11-08T13:42:45.001Z,47.1
2017-11-08T13:43:46.662Z,50.7
2017-11-08T13:44:48.317Z,46.3
2017-11-08T13:45:49.981Z,47.3
2017-11-08T13:46:51.646Z,47.0
2017-11-08T13:47:53.304Z,48.3
2017-11-08T13:48:54.979Z,51.2
2017-11-08T13:49:56.632Z,50.0
2017-11-08T13:50:58.301Z,49.1
2017-11-08T13:51:59.972Z,50.6
2017-11-08T13:53:01.635Z,47.5
2017-11-08T13:54:03.290Z,49.2
2017-11-08T13:55:04.961Z,47.8
2017-11-08T13:56:06.624Z,50.2
2017-11-08T13:57:08.277Z,48.1